Alliance, Ohio
Current Conditions -  °F | °C
As of 3:51 PM on Saturday 25 Oct 2014 (Local Time) from KCAK Reporting Station
Few Clouds Few Clouds  
Wind Chill: 21°   Ceiling: Unl
Heat Index: 21°   Visibility: 10mi
Dew Point: 11°   Wind: 16mph
Humidity: 53%   Direction: 260°W
Pressure: 29.77"   Gusts: 21mph
Location:  40.92°N, 81.1°W
Report Text: KCAK 251951Z 26014G18KT 10SM FEW038 21/11 A2977 RMK AO2 SLP080 T02110111
Loading
Personal Weather Stations






























Interactive Weather Map
Tropical Storm Tracking
New forecast layout! Learn more

10-Day Weather Forecast

Advertisements
Track Severe Weather on mobile